Time;durP1;ratioP1;P1;durP2;ratioP2;P2;SDS_P1;SDS_P2;PMS_P1;PMS_P2;Temp;Humidity;BMP_temperature;BMP_pressure;BME280_temperature;BME280_humidity;BME280_pressure;Samples;Min_cycle;Max_cycle;Signal;HPM_P1;HPM_P2
2022/07/02 00:00:35;;;;;;;4.849999;4.45;;;;;;;10.53;89.5498;96036.84;;;;
2022/07/02 00:01:36;;;;;;;4.849999;4.45;;;;;;;10.53;89.5498;96036.84;;;;
2022/07/02 00:02:37;;;;;;;4.849999;4.45;;;;;;;10.53;89.5498;96036.84;;;;
2022/07/02 00:03:41;;;;;;;4.849999;4.45;;;;;;;10.53;89.5498;96036.84;;;;
2022/07/02 00:04:49;;;;;;;4.849999;4.45;;;;;;;10.53;89.5498;96036.84;;;;
2022/07/02 00:05:55;;;;;;;4.849999;4.45;;;;;;;10.53;89.5498;96036.84;;;;
2022/07/02 00:06:57;;;;;;;4.849999;4.45;;;;;;;10.53;89.5498;96036.84;;;;
2022/07/02 00:07:58;;;;;;;4.849999;4.45;;;;;;;10.53;89.5498;96036.84;;;;
2022/07/02 00:09:01;;;;;;;4.849999;4.45;;;;;;;10.53;89.5498;96036.84;;;;
2022/07/02 00:10:01;;;;;;;4.849999;4.45;;;;;;;10.53;89.5498;96036.84;;;;
2022/07/02 00:11:03;;;;;;;4.849999;4.45;;;;;;;10.53;89.5498;96036.84;;;;
2022/07/02 00:12:04;;;;;;;4.649999;4.25;;;;;;;10.33;89.71289;96029.26;;;;
2022/07/02 00:13:05;;;;;;;4.649999;4.25;;;;;;;10.33;89.71289;96029.26;;;;
2022/07/02 00:14:06;;;;;;;4.649999;4.25;;;;;;;10.33;89.71289;96029.26;;;;
2022/07/02 00:15:07;;;;;;;4.649999;4.25;;;;;;;10.33;89.71289;96029.26;;;;
2022/07/02 00:16:08;;;;;;;4.649999;4.25;;;;;;;10.33;89.71289;96029.26;;;;
2022/07/02 00:17:09;;;;;;;4.649999;4.25;;;;;;;10.33;89.71289;96029.26;;;;
2022/07/02 00:18:10;;;;;;;4.649999;4.25;;;;;;;10.33;89.71289;96029.26;;;;
2022/07/02 00:19:11;;;;;;;4.649999;4.25;;;;;;;10.33;89.71289;96029.26;;;;
2022/07/02 00:20:13;;;;;;;4.649999;4.25;;;;;;;10.33;89.71289;96029.26;;;;
2022/07/02 00:21:14;;;;;;;4.649999;4.25;;;;;;;10.33;89.71289;96029.26;;;;
2022/07/02 00:22:15;;;;;;;4.649999;4.25;;;;;;;10.33;89.71289;96029.26;;;;
2022/07/02 00:23:16;;;;;;;4.699999;4.05;;;;;;;10.27;89.83887;96024.75;;;;
2022/07/02 00:24:17;;;;;;;4.699999;4.05;;;;;;;10.27;89.83887;96024.75;;;;
2022/07/02 00:25:17;;;;;;;4.699999;4.05;;;;;;;10.27;89.83887;96024.75;;;;
2022/07/02 00:26:18;;;;;;;4.699999;4.05;;;;;;;10.27;89.83887;96024.75;;;;
2022/07/02 00:27:26;;;;;;;4.699999;4.05;;;;;;;10.27;89.83887;96024.75;;;;
2022/07/02 00:28:28;;;;;;;4.699999;4.05;;;;;;;10.27;89.83887;96024.75;;;;
2022/07/02 00:29:30;;;;;;;4.699999;4.05;;;;;;;10.27;89.83887;96024.75;;;;
2022/07/02 00:30:36;;;;;;;4.699999;4.05;;;;;;;10.27;89.83887;96024.75;;;;
2022/07/02 00:31:38;;;;;;;4.699999;4.05;;;;;;;10.27;89.83887;96024.75;;;;
2022/07/02 00:32:39;;;;;;;4.699999;4.05;;;;;;;10.27;89.83887;96024.75;;;;
2022/07/02 00:33:41;;;;;;;4.25;3.85;;;;;;;10.14;89.86523;96030.83;;;;
2022/07/02 00:34:43;;;;;;;4.25;3.85;;;;;;;10.14;89.86523;96030.83;;;;
2022/07/02 00:35:45;;;;;;;4.25;3.85;;;;;;;10.14;89.86523;96030.83;;;;
2022/07/02 00:36:46;;;;;;;4.25;3.85;;;;;;;10.14;89.86523;96030.83;;;;
2022/07/02 00:37:48;;;;;;;4.25;3.85;;;;;;;10.14;89.86523;96030.83;;;;
2022/07/02 00:38:49;;;;;;;4.25;3.85;;;;;;;10.14;89.86523;96030.83;;;;
2022/07/02 00:39:50;;;;;;;4.25;3.85;;;;;;;10.14;89.86523;96030.83;;;;
2022/07/02 00:40:50;;;;;;;4.25;3.85;;;;;;;10.14;89.86523;96030.83;;;;
2022/07/02 00:41:52;;;;;;;4.25;3.85;;;;;;;10.14;89.86523;96030.83;;;;
2022/07/02 00:42:55;;;;;;;4.25;3.85;;;;;;;10.14;89.86523;96030.83;;;;
2022/07/02 00:43:56;;;;;;;4.8;4.3;;;;;;;10.07;89.95898;96029.83;;;;
2022/07/02 00:44:57;;;;;;;4.8;4.3;;;;;;;10.07;89.95898;96029.83;;;;
2022/07/02 00:46:00;;;;;;;4.8;4.3;;;;;;;10.07;89.95898;96029.83;;;;
2022/07/02 00:47:01;;;;;;;4.8;4.3;;;;;;;10.07;89.95898;96029.83;;;;
2022/07/02 00:48:04;;;;;;;4.8;4.3;;;;;;;10.07;89.95898;96029.83;;;;
2022/07/02 00:49:05;;;;;;;4.8;4.3;;;;;;;10.07;89.95898;96029.83;;;;
2022/07/02 00:50:08;;;;;;;4.8;4.3;;;;;;;10.07;89.95898;96029.83;;;;
2022/07/02 00:51:09;;;;;;;4.8;4.3;;;;;;;10.07;89.95898;96029.83;;;;
2022/07/02 00:52:10;;;;;;;4.8;4.3;;;;;;;10.07;89.95898;96029.83;;;;
2022/07/02 00:53:10;;;;;;;4.8;4.3;;;;;;;10.07;89.95898;96029.83;;;;
2022/07/02 00:54:11;;;;;;;4.8;4.3;;;;;;;10.07;89.95898;96029.83;;;;
2022/07/02 00:55:11;;;;;;;4.650001;4.200001;;;;;;;9.99;89.99512;96027.83;;;;
2022/07/02 00:56:12;;;;;;;4.650001;4.200001;;;;;;;9.99;89.99512;96027.83;;;;
2022/07/02 00:57:13;;;;;;;4.650001;4.200001;;;;;;;9.99;89.99512;96027.83;;;;
2022/07/02 00:58:13;;;;;;;4.650001;4.200001;;;;;;;9.99;89.99512;96027.83;;;;
2022/07/02 00:59:14;;;;;;;4.650001;4.200001;;;;;;;9.99;89.99512;96027.83;;;;
2022/07/02 01:00:15;;;;;;;4.650001;4.200001;;;;;;;9.99;89.99512;96027.83;;;;
2022/07/02 01:01:18;;;;;;;4.650001;4.200001;;;;;;;9.99;89.99512;96027.83;;;;
2022/07/02 01:02:18;;;;;;;4.650001;4.200001;;;;;;;9.99;89.99512;96027.83;;;;
2022/07/02 01:03:21;;;;;;;4.650001;4.200001;;;;;;;9.99;89.99512;96027.83;;;;
2022/07/02 01:04:23;;;;;;;4.650001;4.200001;;;;;;;9.99;89.99512;96027.83;;;;
2022/07/02 01:05:26;;;;;;;7.050001;5.799999;;;;;;;10;90.10547;96024.61;;;;
2022/07/02 01:06:27;;;;;;;7.050001;5.799999;;;;;;;10;90.10547;96024.61;;;;
2022/07/02 01:07:31;;;;;;;7.050001;5.799999;;;;;;;10;90.10547;96024.61;;;;
2022/07/02 01:13:45;;;;;;;7.050001;5.799999;;;;;;;10;90.10547;96024.61;;;;
2022/07/02 01:14:46;;;;;;;7.050001;5.799999;;;;;;;10;90.10547;96024.61;;;;
2022/07/02 01:15:46;;;;;;;7.050001;5.799999;;;;;;;10;90.10547;96024.61;;;;
2022/07/02 01:16:47;;;;;;;8;6.1;;;;;;;9.95;90.12695;96024.36;;;;
2022/07/02 01:17:48;;;;;;;8;6.1;;;;;;;9.95;90.12695;96024.36;;;;
2022/07/02 01:18:48;;;;;;;8;6.1;;;;;;;9.95;90.12695;96024.36;;;;
2022/07/02 01:19:50;;;;;;;8;6.1;;;;;;;9.95;90.12695;96024.36;;;;
2022/07/02 01:20:51;;;;;;;8;6.1;;;;;;;9.95;90.12695;96024.36;;;;
2022/07/02 01:21:51;;;;;;;8;6.1;;;;;;;9.95;90.12695;96024.36;;;;
2022/07/02 01:23:31;;;;;;;8;6.1;;;;;;;9.95;90.12695;96024.36;;;;
2022/07/02 01:24:31;;;;;;;8;6.1;;;;;;;9.95;90.12695;96024.36;;;;
2022/07/02 01:25:32;;;;;;;8;6.1;;;;;;;9.95;90.12695;96024.36;;;;
2022/07/02 01:26:32;;;;;;;8;6.1;;;;;;;9.95;90.12695;96024.36;;;;
2022/07/02 01:27:33;;;;;;;6.649999;5.95;;;;;;;9.96;90.21582;96020.7;;;;
2022/07/02 01:28:34;;;;;;;6.649999;5.95;;;;;;;9.96;90.21582;96020.7;;;;
2022/07/02 01:29:34;;;;;;;6.649999;5.95;;;;;;;9.96;90.21582;96020.7;;;;
2022/07/02 01:30:35;;;;;;;6.649999;5.95;;;;;;;9.96;90.21582;96020.7;;;;
2022/07/02 01:31:36;;;;;;;6.649999;5.95;;;;;;;9.96;90.21582;96020.7;;;;
2022/07/02 01:32:36;;;;;;;6.649999;5.95;;;;;;;9.96;90.21582;96020.7;;;;
2022/07/02 01:33:37;;;;;;;6.649999;5.95;;;;;;;9.96;90.21582;96020.7;;;;
2022/07/02 01:34:37;;;;;;;6.649999;5.95;;;;;;;9.96;90.21582;96020.7;;;;
2022/07/02 01:35:40;;;;;;;6.649999;5.95;;;;;;;9.96;90.21582;96020.7;;;;
2022/07/02 01:36:41;;;;;;;6.649999;5.95;;;;;;;9.96;90.21582;96020.7;;;;
2022/07/02 01:37:42;;;;;;;5.8;5.199999;;;;;;;9.86;90.12891;96008.84;;;;
2022/07/02 01:38:42;;;;;;;5.8;5.199999;;;;;;;9.86;90.12891;96008.84;;;;
2022/07/02 01:39:43;;;;;;;5.8;5.199999;;;;;;;9.86;90.12891;96008.84;;;;
2022/07/02 01:40:44;;;;;;;5.8;5.199999;;;;;;;9.86;90.12891;96008.84;;;;
2022/07/02 01:41:45;;;;;;;5.8;5.199999;;;;;;;9.86;90.12891;96008.84;;;;
2022/07/02 01:42:45;;;;;;;5.8;5.199999;;;;;;;9.86;90.12891;96008.84;;;;
2022/07/02 01:43:46;;;;;;;5.8;5.199999;;;;;;;9.86;90.12891;96008.84;;;;
2022/07/02 01:44:46;;;;;;;5.8;5.199999;;;;;;;9.86;90.12891;96008.84;;;;
2022/07/02 01:45:47;;;;;;;5.8;5.199999;;;;;;;9.86;90.12891;96008.84;;;;
2022/07/02 01:46:47;;;;;;;5.8;5.199999;;;;;;;9.86;90.12891;96008.84;;;;
2022/07/02 01:47:48;;;;;;;5.8;5.199999;;;;;;;9.86;90.12891;96008.84;;;;
2022/07/02 01:48:49;;;;;;;5.799999;5.2;;;;;;;9.8;90.2666;95998.52;;;;
2022/07/02 01:49:49;;;;;;;5.799999;5.2;;;;;;;9.8;90.2666;95998.52;;;;
2022/07/02 01:50:50;;;;;;;5.799999;5.2;;;;;;;9.8;90.2666;95998.52;;;;
2022/07/02 01:51:50;;;;;;;5.799999;5.2;;;;;;;9.8;90.2666;95998.52;;;;
2022/07/02 01:52:51;;;;;;;5.799999;5.2;;;;;;;9.8;90.2666;95998.52;;;;
2022/07/02 01:53:51;;;;;;;5.799999;5.2;;;;;;;9.8;90.2666;95998.52;;;;
2022/07/02 01:54:52;;;;;;;5.799999;5.2;;;;;;;9.8;90.2666;95998.52;;;;
2022/07/02 01:55:53;;;;;;;5.799999;5.2;;;;;;;9.8;90.2666;95998.52;;;;
2022/07/02 01:56:53;;;;;;;5.799999;5.2;;;;;;;9.8;90.2666;95998.52;;;;
2022/07/02 01:57:54;;;;;;;5.799999;5.2;;;;;;;9.8;90.2666;95998.52;;;;
2022/07/02 01:58:54;;;;;;;5.450001;4.95;;;;;;;9.7;90.28809;95999.33;;;;
2022/07/02 01:59:55;;;;;;;5.450001;4.95;;;;;;;9.7;90.28809;95999.33;;;;
2022/07/02 02:00:55;;;;;;;5.450001;4.95;;;;;;;9.7;90.28809;95999.33;;;;
2022/07/02 02:01:56;;;;;;;5.450001;4.95;;;;;;;9.7;90.28809;95999.33;;;;
2022/07/02 02:02:56;;;;;;;5.450001;4.95;;;;;;;9.7;90.28809;95999.33;;;;
2022/07/02 02:03:57;;;;;;;5.450001;4.95;;;;;;;9.7;90.28809;95999.33;;;;
2022/07/02 02:04:58;;;;;;;5.450001;4.95;;;;;;;9.7;90.28809;95999.33;;;;
2022/07/02 02:05:59;;;;;;;5.450001;4.95;;;;;;;9.7;90.28809;95999.33;;;;
2022/07/02 02:06:59;;;;;;;5.450001;4.95;;;;;;;9.7;90.28809;95999.33;;;;
2022/07/02 02:08:03;;;;;;;5.450001;4.95;;;;;;;9.7;90.28809;95999.33;;;;
2022/07/02 02:09:04;;;;;;;5.450001;4.95;;;;;;;9.7;90.28809;95999.33;;;;
2022/07/02 02:10:04;;;;;;;6.299999;5.5;;;;;;;9.67;90.46387;95999.71;;;;
2022/07/02 02:11:06;;;;;;;6.299999;5.5;;;;;;;9.67;90.46387;95999.71;;;;
2022/07/02 02:12:06;;;;;;;6.299999;5.5;;;;;;;9.67;90.46387;95999.71;;;;
2022/07/02 02:13:08;;;;;;;6.299999;5.5;;;;;;;9.67;90.46387;95999.71;;;;
2022/07/02 02:14:08;;;;;;;6.299999;5.5;;;;;;;9.67;90.46387;95999.71;;;;
2022/07/02 02:15:09;;;;;;;6.299999;5.5;;;;;;;9.67;90.46387;95999.71;;;;
2022/07/02 02:16:10;;;;;;;6.299999;5.5;;;;;;;9.67;90.46387;95999.71;;;;
2022/07/02 02:17:10;;;;;;;6.299999;5.5;;;;;;;9.67;90.46387;95999.71;;;;
2022/07/02 02:18:11;;;;;;;6.299999;5.5;;;;;;;9.67;90.46387;95999.71;;;;
2022/07/02 02:19:11;;;;;;;6.299999;5.5;;;;;;;9.67;90.46387;95999.71;;;;
2022/07/02 02:20:12;;;;;;;6.299999;5.5;;;;;;;9.67;90.46387;95999.71;;;;
2022/07/02 02:21:13;;;;;;;6.299999;5.5;;;;;;;9.67;90.46387;95999.71;;;;
2022/07/02 02:22:13;;;;;;;6.299999;5.5;;;;;;;9.67;90.46387;95999.71;;;;
2022/07/02 02:23:14;;;;;;;6.299999;5.5;;;;;;;9.67;90.46387;95999.71;;;;
2022/07/02 02:24:15;;;;;;;6.299999;5.5;;;;;;;9.67;90.46387;95999.71;;;;
2022/07/02 02:25:16;;;;;;;6.299999;5.5;;;;;;;9.67;90.46387;95999.71;;;;
2022/07/02 02:26:16;;;;;;;6.299999;5.5;;;;;;;9.67;90.46387;95999.71;;;;
2022/07/02 02:27:17;;;;;;;6.299999;5.5;;;;;;;9.67;90.46387;95999.71;;;;
2022/07/02 02:28:17;;;;;;;6.299999;5.5;;;;;;;9.67;90.46387;95999.71;;;;
2022/07/02 02:29:18;;;;;;;6.299999;5.5;;;;;;;9.67;90.46387;95999.71;;;;
2022/07/02 02:30:18;;;;;;;6.299999;5.5;;;;;;;9.67;90.46387;95999.71;;;;
2022/07/02 02:31:19;;;;;;;6.299999;5.5;;;;;;;9.67;90.46387;95999.71;;;;
2022/07/02 02:32:20;;;;;;;6.299999;5.5;;;;;;;9.67;90.46387;95999.71;;;;
2022/07/02 02:33:20;;;;;;;6.299999;5.5;;;;;;;9.67;90.46387;95999.71;;;;
2022/07/02 02:34:21;;;;;;;6.299999;5.5;;;;;;;9.67;90.46387;95999.71;;;;
2022/07/02 02:35:21;;;;;;;6.299999;5.5;;;;;;;9.67;90.46387;95999.71;;;;
2022/07/02 02:36:22;;;;;;;6.299999;5.5;;;;;;;9.67;90.46387;95999.71;;;;
2022/07/02 02:37:23;;;;;;;6.299999;5.5;;;;;;;9.67;90.46387;95999.71;;;;
2022/07/02 02:38:23;;;;;;;6.299999;5.5;;;;;;;9.67;90.46387;95999.71;;;;
2022/07/02 02:39:24;;;;;;;6.299999;5.5;;;;;;;9.67;90.46387;95999.71;;;;
2022/07/02 02:40:25;;;;;;;6.299999;5.5;;;;;;;9.67;90.46387;95999.71;;;;
2022/07/02 02:41:25;;;;;;;5.349999;4.05;;;;;;;9.38;90.40527;96017.38;;;;
2022/07/02 02:42:26;;;;;;;5.349999;4.05;;;;;;;9.38;90.40527;96017.38;;;;
2022/07/02 02:43:26;;;;;;;5.349999;4.05;;;;;;;9.38;90.40527;96017.38;;;;
2022/07/02 02:44:27;;;;;;;5.349999;4.05;;;;;;;9.38;90.40527;96017.38;;;;
2022/07/02 02:45:27;;;;;;;5.349999;4.05;;;;;;;9.38;90.40527;96017.38;;;;
2022/07/02 02:46:28;;;;;;;5.349999;4.05;;;;;;;9.38;90.40527;96017.38;;;;
2022/07/02 02:47:28;;;;;;;5.349999;4.05;;;;;;;9.38;90.40527;96017.38;;;;
2022/07/02 02:48:29;;;;;;;5.349999;4.05;;;;;;;9.38;90.40527;96017.38;;;;
2022/07/02 02:49:29;;;;;;;5.349999;4.05;;;;;;;9.38;90.40527;96017.38;;;;
2022/07/02 02:50:30;;;;;;;5.349999;4.05;;;;;;;9.38;90.40527;96017.38;;;;
2022/07/02 02:51:30;;;;;;;5.349999;4.05;;;;;;;9.38;90.40527;96017.38;;;;
2022/07/02 02:52:31;;;;;;;4.2;3.65;;;;;;;9.34;90.53516;96018.74;;;;
2022/07/02 02:53:31;;;;;;;4.2;3.65;;;;;;;9.34;90.53516;96018.74;;;;
2022/07/02 02:54:32;;;;;;;4.2;3.65;;;;;;;9.34;90.53516;96018.74;;;;
2022/07/02 02:55:32;;;;;;;4.2;3.65;;;;;;;9.34;90.53516;96018.74;;;;
2022/07/02 02:56:33;;;;;;;4.2;3.65;;;;;;;9.34;90.53516;96018.74;;;;
2022/07/02 02:57:33;;;;;;;4.2;3.65;;;;;;;9.34;90.53516;96018.74;;;;
2022/07/02 02:58:34;;;;;;;4.2;3.65;;;;;;;9.34;90.53516;96018.74;;;;
2022/07/02 02:59:34;;;;;;;4.2;3.65;;;;;;;9.34;90.53516;96018.74;;;;
2022/07/02 03:00:35;;;;;;;4.2;3.65;;;;;;;9.34;90.53516;96018.74;;;;
2022/07/02 03:01:35;;;;;;;4.2;3.65;;;;;;;9.34;90.53516;96018.74;;;;
2022/07/02 03:02:36;;;;;;;4.2;3.65;;;;;;;9.34;90.53516;96018.74;;;;
2022/07/02 03:03:36;;;;;;;3.3;3;;;;;;;9.26;90.44434;96019.26;;;;
2022/07/02 03:04:37;;;;;;;3.3;3;;;;;;;9.26;90.44434;96019.26;;;;
2022/07/02 03:05:37;;;;;;;3.3;3;;;;;;;9.26;90.44434;96019.26;;;;
2022/07/02 03:06:37;;;;;;;3.3;3;;;;;;;9.26;90.44434;96019.26;;;;
2022/07/02 03:07:38;;;;;;;3.3;3;;;;;;;9.26;90.44434;96019.26;;;;
2022/07/02 03:08:39;;;;;;;3.3;3;;;;;;;9.26;90.44434;96019.26;;;;
2022/07/02 03:09:39;;;;;;;3.3;3;;;;;;;9.26;90.44434;96019.26;;;;
2022/07/02 03:10:40;;;;;;;3.3;3;;;;;;;9.26;90.44434;96019.26;;;;
2022/07/02 03:11:40;;;;;;;3.3;3;;;;;;;9.26;90.44434;96019.26;;;;
2022/07/02 03:12:41;;;;;;;3.3;3;;;;;;;9.26;90.44434;96019.26;;;;
2022/07/02 03:13:42;;;;;;;4.5;3.45;;;;;;;9.22;90.52051;96022.05;;;;
2022/07/02 03:14:42;;;;;;;4.5;3.45;;;;;;;9.22;90.52051;96022.05;;;;
2022/07/02 03:15:43;;;;;;;4.5;3.45;;;;;;;9.22;90.52051;96022.05;;;;
2022/07/02 03:16:43;;;;;;;4.5;3.45;;;;;;;9.22;90.52051;96022.05;;;;
2022/07/02 03:17:44;;;;;;;4.5;3.45;;;;;;;9.22;90.52051;96022.05;;;;
2022/07/02 03:18:45;;;;;;;4.5;3.45;;;;;;;9.22;90.52051;96022.05;;;;
2022/07/02 03:19:45;;;;;;;4.5;3.45;;;;;;;9.22;90.52051;96022.05;;;;
2022/07/02 03:20:46;;;;;;;4.5;3.45;;;;;;;9.22;90.52051;96022.05;;;;
2022/07/02 03:21:46;;;;;;;4.5;3.45;;;;;;;9.22;90.52051;96022.05;;;;
2022/07/02 03:22:47;;;;;;;4.5;3.45;;;;;;;9.22;90.52051;96022.05;;;;
2022/07/02 03:23:47;;;;;;;4.5;3.45;;;;;;;9.22;90.52051;96022.05;;;;
2022/07/02 03:24:48;;;;;;;3.15;2.85;;;;;;;9.11;90.47754;96034.81;;;;
2022/07/02 03:25:48;;;;;;;3.15;2.85;;;;;;;9.11;90.47754;96034.81;;;;
2022/07/02 03:26:49;;;;;;;3.15;2.85;;;;;;;9.11;90.47754;96034.81;;;;
2022/07/02 03:27:49;;;;;;;3.15;2.85;;;;;;;9.11;90.47754;96034.81;;;;
2022/07/02 03:28:50;;;;;;;3.15;2.85;;;;;;;9.11;90.47754;96034.81;;;;
2022/07/02 03:29:50;;;;;;;3.15;2.85;;;;;;;9.11;90.47754;96034.81;;;;
2022/07/02 03:30:51;;;;;;;3.15;2.85;;;;;;;9.11;90.47754;96034.81;;;;
2022/07/02 03:31:52;;;;;;;3.15;2.85;;;;;;;9.11;90.47754;96034.81;;;;
2022/07/02 03:32:52;;;;;;;3.15;2.85;;;;;;;9.11;90.47754;96034.81;;;;
2022/07/02 03:33:53;;;;;;;3.15;2.85;;;;;;;9.11;90.47754;96034.81;;;;
2022/07/02 03:34:53;;;;;;;3.95;3.35;;;;;;;9.08;90.57617;96039.11;;;;
2022/07/02 03:35:54;;;;;;;3.95;3.35;;;;;;;9.08;90.57617;96039.11;;;;
2022/07/02 03:36:54;;;;;;;3.95;3.35;;;;;;;9.08;90.57617;96039.11;;;;
2022/07/02 03:37:55;;;;;;;3.95;3.35;;;;;;;9.08;90.57617;96039.11;;;;
2022/07/02 03:38:55;;;;;;;3.95;3.35;;;;;;;9.08;90.57617;96039.11;;;;
2022/07/02 03:39:56;;;;;;;3.95;3.35;;;;;;;9.08;90.57617;96039.11;;;;
2022/07/02 03:40:57;;;;;;;3.95;3.35;;;;;;;9.08;90.57617;96039.11;;;;
2022/07/02 03:41:57;;;;;;;3.95;3.35;;;;;;;9.08;90.57617;96039.11;;;;
2022/07/02 03:42:58;;;;;;;3.95;3.35;;;;;;;9.08;90.57617;96039.11;;;;
2022/07/02 03:43:58;;;;;;;3.95;3.35;;;;;;;9.08;90.57617;96039.11;;;;
2022/07/02 03:44:59;;;;;;;3.95;3.35;;;;;;;9.08;90.57617;96039.11;;;;
2022/07/02 03:45:59;;;;;;;3.8;3.1;;;;;;;9.04;90.60059;96039.08;;;;
2022/07/02 03:47:00;;;;;;;3.8;3.1;;;;;;;9.04;90.60059;96039.08;;;;
2022/07/02 03:48:00;;;;;;;3.8;3.1;;;;;;;9.04;90.60059;96039.08;;;;
2022/07/02 03:49:01;;;;;;;3.8;3.1;;;;;;;9.04;90.60059;96039.08;;;;
2022/07/02 03:50:01;;;;;;;3.8;3.1;;;;;;;9.04;90.60059;96039.08;;;;
2022/07/02 03:51:02;;;;;;;3.8;3.1;;;;;;;9.04;90.60059;96039.08;;;;
2022/07/02 03:52:02;;;;;;;3.8;3.1;;;;;;;9.04;90.60059;96039.08;;;;
2022/07/02 03:53:04;;;;;;;3.8;3.1;;;;;;;9.04;90.60059;96039.08;;;;
2022/07/02 03:54:05;;;;;;;3.8;3.1;;;;;;;9.04;90.60059;96039.08;;;;
2022/07/02 03:55:05;;;;;;;3.8;3.1;;;;;;;9.04;90.60059;96039.08;;;;
2022/07/02 03:56:07;;;;;;;4.05;3.6;;;;;;;9.09;90.64258;96040.77;;;;
2022/07/02 03:57:08;;;;;;;4.05;3.6;;;;;;;9.09;90.64258;96040.77;;;;
2022/07/02 03:58:08;;;;;;;4.05;3.6;;;;;;;9.09;90.64258;96040.77;;;;
2022/07/02 03:59:09;;;;;;;4.05;3.6;;;;;;;9.09;90.64258;96040.77;;;;
2022/07/02 04:00:09;;;;;;;4.05;3.6;;;;;;;9.09;90.64258;96040.77;;;;
2022/07/02 04:01:10;;;;;;;4.05;3.6;;;;;;;9.09;90.64258;96040.77;;;;
2022/07/02 04:02:11;;;;;;;4.05;3.6;;;;;;;9.09;90.64258;96040.77;;;;
2022/07/02 04:03:12;;;;;;;4.05;3.6;;;;;;;9.09;90.64258;96040.77;;;;
2022/07/02 04:04:12;;;;;;;4.05;3.6;;;;;;;9.09;90.64258;96040.77;;;;
2022/07/02 04:05:13;;;;;;;4.05;3.6;;;;;;;9.09;90.64258;96040.77;;;;
2022/07/02 04:06:13;;;;;;;4.05;3.6;;;;;;;9.09;90.64258;96040.77;;;;
2022/07/02 04:07:14;;;;;;;3.45;3.15;;;;;;;9.1;90.60156;96043.71;;;;
2022/07/02 04:08:14;;;;;;;3.45;3.15;;;;;;;9.1;90.60156;96043.71;;;;
2022/07/02 04:09:15;;;;;;;3.45;3.15;;;;;;;9.1;90.60156;96043.71;;;;
2022/07/02 04:10:15;;;;;;;3.45;3.15;;;;;;;9.1;90.60156;96043.71;;;;
2022/07/02 04:11:15;;;;;;;3.45;3.15;;;;;;;9.1;90.60156;96043.71;;;;
2022/07/02 04:12:16;;;;;;;3.45;3.15;;;;;;;9.1;90.60156;96043.71;;;;
2022/07/02 04:13:16;;;;;;;3.45;3.15;;;;;;;9.1;90.60156;96043.71;;;;
2022/07/02 04:14:17;;;;;;;3.45;3.15;;;;;;;9.1;90.60156;96043.71;;;;
2022/07/02 04:15:17;;;;;;;3.45;3.15;;;;;;;9.1;90.60156;96043.71;;;;
2022/07/02 04:16:18;;;;;;;3.45;3.15;;;;;;;9.1;90.60156;96043.71;;;;
2022/07/02 04:17:18;;;;;;;3.45;3.15;;;;;;;9.1;90.60156;96043.71;;;;
2022/07/02 04:18:19;;;;;;;4.05;3.65;;;;;;;9.25;90.73926;96050.62;;;;
2022/07/02 04:19:19;;;;;;;4.05;3.65;;;;;;;9.25;90.73926;96050.62;;;;
2022/07/02 04:20:20;;;;;;;4.05;3.65;;;;;;;9.25;90.73926;96050.62;;;;
2022/07/02 04:21:20;;;;;;;4.05;3.65;;;;;;;9.25;90.73926;96050.62;;;;
2022/07/02 04:22:21;;;;;;;4.05;3.65;;;;;;;9.25;90.73926;96050.62;;;;
2022/07/02 04:23:21;;;;;;;4.05;3.65;;;;;;;9.25;90.73926;96050.62;;;;
2022/07/02 04:24:22;;;;;;;4.05;3.65;;;;;;;9.25;90.73926;96050.62;;;;
2022/07/02 04:25:22;;;;;;;4.05;3.65;;;;;;;9.25;90.73926;96050.62;;;;
2022/07/02 04:26:23;;;;;;;4.05;3.65;;;;;;;9.25;90.73926;96050.62;;;;
2022/07/02 04:27:23;;;;;;;4.05;3.65;;;;;;;9.25;90.73926;96050.62;;;;
2022/07/02 04:28:24;;;;;;;4.349999;3.950001;;;;;;;9.41;90.68945;96046.03;;;;
2022/07/02 04:29:25;;;;;;;4.349999;3.950001;;;;;;;9.41;90.68945;96046.03;;;;
2022/07/02 04:30:25;;;;;;;4.349999;3.950001;;;;;;;9.41;90.68945;96046.03;;;;
2022/07/02 04:31:26;;;;;;;4.349999;3.950001;;;;;;;9.41;90.68945;96046.03;;;;
2022/07/02 04:32:26;;;;;;;4.349999;3.950001;;;;;;;9.41;90.68945;96046.03;;;;
2022/07/02 04:33:27;;;;;;;4.349999;3.950001;;;;;;;9.41;90.68945;96046.03;;;;
2022/07/02 04:34:28;;;;;;;4.349999;3.950001;;;;;;;9.41;90.68945;96046.03;;;;
2022/07/02 04:35:28;;;;;;;4.349999;3.950001;;;;;;;9.41;90.68945;96046.03;;;;
2022/07/02 04:36:29;;;;;;;4.349999;3.950001;;;;;;;9.41;90.68945;96046.03;;;;
2022/07/02 04:37:29;;;;;;;4.349999;3.950001;;;;;;;9.41;90.68945;96046.03;;;;
2022/07/02 04:38:30;;;;;;;4.349999;3.950001;;;;;;;9.41;90.68945;96046.03;;;;
2022/07/02 04:39:30;;;;;;;27.4;10.75;;;;;;;9.77;90.80566;96047.33;;;;
2022/07/02 04:40:31;;;;;;;27.4;10.75;;;;;;;9.77;90.80566;96047.33;;;;
2022/07/02 04:41:32;;;;;;;27.4;10.75;;;;;;;9.77;90.80566;96047.33;;;;
2022/07/02 04:42:33;;;;;;;27.4;10.75;;;;;;;9.77;90.80566;96047.33;;;;
2022/07/02 04:43:33;;;;;;;27.4;10.75;;;;;;;9.77;90.80566;96047.33;;;;
2022/07/02 04:44:33;;;;;;;27.4;10.75;;;;;;;9.77;90.80566;96047.33;;;;
2022/07/02 04:45:34;;;;;;;27.4;10.75;;;;;;;9.77;90.80566;96047.33;;;;
2022/07/02 04:46:34;;;;;;;27.4;10.75;;;;;;;9.77;90.80566;96047.33;;;;
2022/07/02 04:47:35;;;;;;;27.4;10.75;;;;;;;9.77;90.80566;96047.33;;;;
2022/07/02 04:48:35;;;;;;;27.4;10.75;;;;;;;9.77;90.80566;96047.33;;;;
2022/07/02 04:49:37;;;;;;;18.6;15.6;;;;;;;10.19;90.70996;96048.25;;;;
2022/07/02 04:50:38;;;;;;;18.6;15.6;;;;;;;10.19;90.70996;96048.25;;;;
2022/07/02 04:51:38;;;;;;;18.6;15.6;;;;;;;10.19;90.70996;96048.25;;;;
2022/07/02 04:52:38;;;;;;;18.6;15.6;;;;;;;10.19;90.70996;96048.25;;;;
2022/07/02 04:53:39;;;;;;;18.6;15.6;;;;;;;10.19;90.70996;96048.25;;;;
2022/07/02 04:54:40;;;;;;;18.6;15.6;;;;;;;10.19;90.70996;96048.25;;;;
2022/07/02 04:55:40;;;;;;;18.6;15.6;;;;;;;10.19;90.70996;96048.25;;;;
2022/07/02 04:56:41;;;;;;;18.6;15.6;;;;;;;10.19;90.70996;96048.25;;;;
2022/07/02 04:57:41;;;;;;;18.6;15.6;;;;;;;10.19;90.70996;96048.25;;;;
2022/07/02 04:58:42;;;;;;;18.6;15.6;;;;;;;10.19;90.70996;96048.25;;;;
2022/07/02 04:59:44;;;;;;;18.6;15.6;;;;;;;10.19;90.70996;96048.25;;;;
2022/07/02 05:00:44;;;;;;;13.15;11.75;;;;;;;10.62;90.58496;96045.83;;;;
2022/07/02 05:01:45;;;;;;;13.15;11.75;;;;;;;10.62;90.58496;96045.83;;;;
2022/07/02 05:02:46;;;;;;;13.15;11.75;;;;;;;10.62;90.58496;96045.83;;;;
2022/07/02 05:03:47;;;;;;;13.15;11.75;;;;;;;10.62;90.58496;96045.83;;;;
2022/07/02 05:04:47;;;;;;;13.15;11.75;;;;;;;10.62;90.58496;96045.83;;;;
2022/07/02 05:05:48;;;;;;;13.15;11.75;;;;;;;10.62;90.58496;96045.83;;;;
2022/07/02 05:06:48;;;;;;;13.15;11.75;;;;;;;10.62;90.58496;96045.83;;;;
2022/07/02 05:07:49;;;;;;;13.15;11.75;;;;;;;10.62;90.58496;96045.83;;;;
2022/07/02 05:08:50;;;;;;;13.15;11.75;;;;;;;10.62;90.58496;96045.83;;;;
2022/07/02 05:09:51;;;;;;;13.15;11.75;;;;;;;10.62;90.58496;96045.83;;;;
2022/07/02 05:10:52;;;;;;;11.15;9.749999;;;;;;;11.02;90.5293;96042.02;;;;
2022/07/02 05:11:53;;;;;;;11.15;9.749999;;;;;;;11.02;90.5293;96042.02;;;;
2022/07/02 05:12:53;;;;;;;11.15;9.749999;;;;;;;11.02;90.5293;96042.02;;;;
2022/07/02 05:13:54;;;;;;;11.15;9.749999;;;;;;;11.02;90.5293;96042.02;;;;
2022/07/02 05:14:54;;;;;;;11.15;9.749999;;;;;;;11.02;90.5293;96042.02;;;;
2022/07/02 05:15:55;;;;;;;11.15;9.749999;;;;;;;11.02;90.5293;96042.02;;;;
2022/07/02 05:16:55;;;;;;;11.15;9.749999;;;;;;;11.02;90.5293;96042.02;;;;
2022/07/02 05:17:56;;;;;;;11.15;9.749999;;;;;;;11.02;90.5293;96042.02;;;;
2022/07/02 05:18:56;;;;;;;11.15;9.749999;;;;;;;11.02;90.5293;96042.02;;;;
2022/07/02 05:19:57;;;;;;;11.15;9.749999;;;;;;;11.02;90.5293;96042.02;;;;
2022/07/02 05:20:57;;;;;;;11.15;9.749999;;;;;;;11.02;90.5293;96042.02;;;;
2022/07/02 05:21:58;;;;;;;11.1;8.650002;;;;;;;11.34;90.41406;96047.47;;;;
2022/07/02 05:22:58;;;;;;;11.1;8.650002;;;;;;;11.34;90.41406;96047.47;;;;
2022/07/02 05:23:59;;;;;;;11.1;8.650002;;;;;;;11.34;90.41406;96047.47;;;;
2022/07/02 05:24:59;;;;;;;11.1;8.650002;;;;;;;11.34;90.41406;96047.47;;;;
2022/07/02 05:25:59;;;;;;;11.1;8.650002;;;;;;;11.34;90.41406;96047.47;;;;
2022/07/02 05:27:00;;;;;;;11.1;8.650002;;;;;;;11.34;90.41406;96047.47;;;;
2022/07/02 05:28:01;;;;;;;11.1;8.650002;;;;;;;11.34;90.41406;96047.47;;;;
2022/07/02 05:29:01;;;;;;;11.1;8.650002;;;;;;;11.34;90.41406;96047.47;;;;
2022/07/02 05:30:02;;;;;;;11.1;8.650002;;;;;;;11.34;90.41406;96047.47;;;;
2022/07/02 05:31:04;;;;;;;11.1;8.650002;;;;;;;11.34;90.41406;96047.47;;;;
2022/07/02 05:32:05;;;;;;;7.65;6.9;;;;;;;11.56;90.33008;96045.9;;;;
2022/07/02 05:33:06;;;;;;;7.65;6.9;;;;;;;11.56;90.33008;96045.9;;;;
2022/07/02 05:34:07;;;;;;;7.65;6.9;;;;;;;11.56;90.33008;96045.9;;;;
2022/07/02 05:35:07;;;;;;;7.65;6.9;;;;;;;11.56;90.33008;96045.9;;;;
2022/07/02 05:36:08;;;;;;;7.65;6.9;;;;;;;11.56;90.33008;96045.9;;;;
2022/07/02 05:37:09;;;;;;;7.65;6.9;;;;;;;11.56;90.33008;96045.9;;;;
2022/07/02 05:38:09;;;;;;;7.65;6.9;;;;;;;11.56;90.33008;96045.9;;;;
2022/07/02 05:39:10;;;;;;;7.65;6.9;;;;;;;11.56;90.33008;96045.9;;;;
2022/07/02 05:40:10;;;;;;;7.65;6.9;;;;;;;11.56;90.33008;96045.9;;;;
2022/07/02 05:41:11;;;;;;;7.65;6.9;;;;;;;11.56;90.33008;96045.9;;;;
2022/07/02 05:42:12;;;;;;;7.65;6.9;;;;;;;11.56;90.33008;96045.9;;;;
2022/07/02 05:43:12;;;;;;;8.049999;7.250001;;;;;;;11.93;90.33008;96048.07;;;;
2022/07/02 05:44:13;;;;;;;8.049999;7.250001;;;;;;;11.93;90.33008;96048.07;;;;
2022/07/02 05:45:13;;;;;;;8.049999;7.250001;;;;;;;11.93;90.33008;96048.07;;;;